VOE3269 LEZL-LEXJ
Flight info
| Callsign | VOE3269 |
|---|---|
| Flight time | N/A |
| Altitude | 34000 |
| Route | HIJ DCT PARKA DCT TLD DCT SIE DCT XERMA DCT ARLUN N865 UNGAS Y753 EMANU |
| Aircraft | A320/M-SDE3FGHIRWY/LB1 |
Departure
| Time | 2026-04-30 14:22 |
|---|---|
| Airport | Seville Airport (LEZL) |
Arrival
| Time | N/A |
|---|---|
| Airport | Seve Ballesteros-Santander Airport (LEXJ) |
| Time | Latitude | Longitude | Altitude | Speed | Heading |
|---|---|---|---|---|---|
| 2026-04-30 13:57 | 37.42341 | -5.89791 | 94 ft | 0 kts | 314° |
| 2026-04-30 14:11 | 37.42337 | -5.89785 | 94 ft | 4 kts | 316° |
| 2026-04-30 14:11 | 37.42316 | -5.89763 | 94 ft | 4 kts | 329° |
| 2026-04-30 14:11 | 37.42292 | -5.89751 | 94 ft | 4 kts | 358° |
| 2026-04-30 14:12 | 37.42274 | -5.89755 | 94 ft | 1 kts | 31° |
| 2026-04-30 14:12 | 37.42271 | -5.89757 | 94 ft | 0 kts | 31° |
| 2026-04-30 14:14 | 37.42272 | -5.89756 | 94 ft | 2 kts | 32° |
| 2026-04-30 14:14 | 37.42269 | -5.89725 | 94 ft | 4 kts | 131° |
| 2026-04-30 14:15 | 37.42229 | -5.89673 | 94 ft | 11 kts | 134° |
| 2026-04-30 14:15 | 37.42182 | -5.89614 | 95 ft | 8 kts | 135° |
| 2026-04-30 14:15 | 37.42144 | -5.89564 | 96 ft | 12 kts | 134° |
| 2026-04-30 14:15 | 37.42075 | -5.89476 | 98 ft | 13 kts | 134° |
| 2026-04-30 14:16 | 37.42014 | -5.89398 | 98 ft | 11 kts | 134° |
| 2026-04-30 14:16 | 37.41984 | -5.89323 | 100 ft | 9 kts | 92° |
| 2026-04-30 14:16 | 37.41983 | -5.89210 | 100 ft | 17 kts | 90° |
| 2026-04-30 14:16 | 37.41984 | -5.89069 | 101 ft | 15 kts | 89° |
| 2026-04-30 14:17 | 37.41985 | -5.88946 | 102 ft | 13 kts | 90° |
| 2026-04-30 14:17 | 37.41984 | -5.88842 | 102 ft | 11 kts | 90° |
| 2026-04-30 14:17 | 37.41985 | -5.88735 | 103 ft | 17 kts | 89° |
| 2026-04-30 14:17 | 37.41985 | -5.88582 | 104 ft | 16 kts | 90° |
| 2026-04-30 14:18 | 37.41986 | -5.88451 | 105 ft | 14 kts | 89° |
| 2026-04-30 14:18 | 37.41986 | -5.88334 | 105 ft | 12 kts | 90° |
| 2026-04-30 14:18 | 37.41987 | -5.88107 | 106 ft | 15 kts | 90° |
| 2026-04-30 14:19 | 37.41987 | -5.87880 | 107 ft | 11 kts | 90° |
| 2026-04-30 14:19 | 37.41987 | -5.87756 | 108 ft | 19 kts | 89° |
| 2026-04-30 14:19 | 37.41988 | -5.87605 | 109 ft | 11 kts | 90° |
| 2026-04-30 14:20 | 37.41977 | -5.87516 | 110 ft | 11 kts | 110° |
| 2026-04-30 14:20 | 37.41930 | -5.87439 | 112 ft | 10 kts | 151° |
| 2026-04-30 14:20 | 37.41835 | -5.87443 | 117 ft | 10 kts | 210° |
| 2026-04-30 14:21 | 37.41800 | -5.87499 | 116 ft | 8 kts | 259° |
| 2026-04-30 14:21 | 37.41800 | -5.87641 | 114 ft | 41 kts | 270° |
| 2026-04-30 14:21 | 37.41794 | -5.89511 | 103 ft | 162 kts | 270° |
| 2026-04-30 14:22 | 37.41789 | -5.90982 | 736 ft | 161 kts | 269° |
| 2026-04-30 14:22 | 37.42590 | -5.93448 | 2057 ft | 166 kts | 321° |
| 2026-04-30 14:22 | 37.43523 | -5.94448 | 2435 ft | 187 kts | 317° |
| 2026-04-30 14:23 | 37.45691 | -5.96941 | 3149 ft | 235 kts | 316° |
| 2026-04-30 14:23 | 37.48285 | -5.99981 | 4472 ft | 266 kts | 316° |
| 2026-04-30 14:24 | 37.51040 | -6.03220 | 6257 ft | 276 kts | 315° |
| 2026-04-30 14:24 | 37.52451 | -6.04884 | 7108 ft | 280 kts | 315° |
| 2026-04-30 14:25 | 37.55319 | -6.08267 | 8811 ft | 287 kts | 314° |
| 2026-04-30 14:25 | 37.58818 | -6.10795 | 10268 ft | 312 kts | 351° |
| 2026-04-30 14:26 | 37.63089 | -6.08898 | 10932 ft | 355 kts | 41° |
| 2026-04-30 14:26 | 37.64960 | -6.06810 | 11599 ft | 361 kts | 42° |
| 2026-04-30 14:26 | 37.68748 | -6.02552 | 13136 ft | 368 kts | 42° |
| 2026-04-30 14:27 | 37.70673 | -6.00398 | 13892 ft | 371 kts | 42° |
| 2026-04-30 14:27 | 37.72617 | -5.98231 | 14552 ft | 375 kts | 42° |
| 2026-04-30 14:27 | 37.74582 | -5.96047 | 15195 ft | 378 kts | 42° |
| 2026-04-30 14:28 | 37.78578 | -5.91613 | 16471 ft | 386 kts | 42° |
| 2026-04-30 14:28 | 37.80609 | -5.89357 | 17102 ft | 389 kts | 42° |
| 2026-04-30 14:28 | 37.82650 | -5.87086 | 17720 ft | 394 kts | 42° |
| 2026-04-30 14:28 | 37.84713 | -5.84780 | 18338 ft | 397 kts | 42° |
| 2026-04-30 14:29 | 37.88893 | -5.80095 | 19410 ft | 405 kts | 42° |
| 2026-04-30 14:29 | 37.92463 | -5.76098 | 20291 ft | 412 kts | 42° |
| 2026-04-30 14:30 | 37.99719 | -5.67951 | 22022 ft | 425 kts | 41° |
| 2026-04-30 14:31 | 38.04186 | -5.62920 | 23024 ft | 433 kts | 41° |
| 2026-04-30 14:31 | 38.08720 | -5.57823 | 24027 ft | 437 kts | 42° |
| 2026-04-30 14:31 | 38.11002 | -5.55260 | 24451 ft | 439 kts | 42° |
| 2026-04-30 14:32 | 38.15591 | -5.50082 | 25225 ft | 444 kts | 42° |
| 2026-04-30 14:32 | 38.17151 | -5.48315 | 25483 ft | 446 kts | 42° |
| 2026-04-30 14:32 | 38.19472 | -5.45684 | 25857 ft | 448 kts | 42° |
| 2026-04-30 14:33 | 38.21777 | -5.43068 | 26220 ft | 451 kts | 42° |
| 2026-04-30 14:33 | 38.26485 | -5.37721 | 26944 ft | 456 kts | 42° |
| 2026-04-30 14:33 | 38.28854 | -5.35031 | 27288 ft | 458 kts | 42° |
| 2026-04-30 14:34 | 38.31244 | -5.32322 | 27621 ft | 461 kts | 42° |
| 2026-04-30 14:34 | 38.33646 | -5.29593 | 27931 ft | 464 kts | 42° |
| 2026-04-30 14:34 | 38.36063 | -5.26842 | 28258 ft | 467 kts | 42° |
| 2026-04-30 14:34 | 38.38485 | -5.24079 | 28589 ft | 469 kts | 42° |
| 2026-04-30 14:35 | 38.43368 | -5.18497 | 29209 ft | 474 kts | 42° |
| 2026-04-30 14:35 | 38.45899 | -5.15770 | 29489 ft | 476 kts | 36° |
| 2026-04-30 14:35 | 38.48734 | -5.13551 | 29784 ft | 478 kts | 26° |
| 2026-04-30 14:36 | 38.51812 | -5.11959 | 30062 ft | 479 kts | 15° |
| 2026-04-30 14:36 | 38.55063 | -5.11032 | 30307 ft | 479 kts | 6° |
| 2026-04-30 14:36 | 38.58341 | -5.10784 | 30541 ft | 478 kts | 356° |
| 2026-04-30 14:36 | 38.61666 | -5.11070 | 30759 ft | 479 kts | 353° |
| 2026-04-30 14:37 | 38.64996 | -5.11408 | 30975 ft | 480 kts | 353° |
| 2026-04-30 14:37 | 38.68331 | -5.11750 | 31264 ft | 480 kts | 353° |
| 2026-04-30 14:37 | 38.71654 | -5.12091 | 31576 ft | 479 kts | 354° |
| 2026-04-30 14:37 | 38.74980 | -5.12430 | 31872 ft | 479 kts | 354° |
| 2026-04-30 14:38 | 38.78294 | -5.12769 | 32174 ft | 478 kts | 354° |
| 2026-04-30 14:38 | 38.81614 | -5.13107 | 32461 ft | 478 kts | 354° |
| 2026-04-30 14:38 | 38.84932 | -5.13448 | 32752 ft | 478 kts | 354° |
| 2026-04-30 14:38 | 38.88247 | -5.13787 | 33046 ft | 478 kts | 354° |
| 2026-04-30 14:39 | 38.91561 | -5.14123 | 33345 ft | 477 kts | 354° |
| 2026-04-30 14:39 | 38.94880 | -5.14346 | 33642 ft | 478 kts | 0° |
| 2026-04-30 14:39 | 38.98186 | -5.13955 | 33934 ft | 478 kts | 10° |
| 2026-04-30 14:40 | 39.04442 | -5.11220 | 34070 ft | 474 kts | 29° |
| 2026-04-30 14:40 | 39.07243 | -5.09014 | 34070 ft | 472 kts | 34° |
| 2026-04-30 14:40 | 39.12776 | -5.04426 | 34070 ft | 472 kts | 33° |
| 2026-04-30 14:41 | 39.18276 | -4.99877 | 34071 ft | 472 kts | 33° |
| 2026-04-30 14:41 | 39.23804 | -4.95305 | 34058 ft | 472 kts | 33° |
| 2026-04-30 14:42 | 39.29332 | -4.90714 | 34052 ft | 472 kts | 34° |
| 2026-04-30 14:42 | 39.34865 | -4.86101 | 34053 ft | 472 kts | 34° |
| 2026-04-30 14:43 | 39.40384 | -4.81491 | 34059 ft | 473 kts | 34° |
| 2026-04-30 14:43 | 39.45910 | -4.76871 | 34056 ft | 473 kts | 34° |
| 2026-04-30 14:44 | 39.51429 | -4.72247 | 34058 ft | 473 kts | 33° |
| 2026-04-30 14:44 | 39.56949 | -4.67616 | 34059 ft | 473 kts | 33° |
| 2026-04-30 14:45 | 39.62443 | -4.62991 | 34054 ft | 473 kts | 33° |
| 2026-04-30 14:45 | 39.67965 | -4.58335 | 34058 ft | 473 kts | 33° |
| 2026-04-30 14:46 | 39.73487 | -4.53671 | 34050 ft | 473 kts | 33° |
| 2026-04-30 14:46 | 39.79003 | -4.49002 | 34050 ft | 473 kts | 33° |
| 2026-04-30 14:47 | 39.84523 | -4.44317 | 34053 ft | 474 kts | 33° |
| 2026-04-30 14:47 | 39.90050 | -4.39624 | 34058 ft | 474 kts | 33° |
| 2026-04-30 14:48 | 39.95571 | -4.34926 | 34064 ft | 474 kts | 33° |
| 2026-04-30 14:48 | 40.01395 | -4.31027 | 34064 ft | 474 kts | 25° |
| 2026-04-30 14:49 | 40.07370 | -4.27395 | 34067 ft | 474 kts | 25° |
| 2026-04-30 14:49 | 40.13350 | -4.23757 | 34071 ft | 474 kts | 25° |
| 2026-04-30 14:50 | 40.22317 | -4.18279 | 34073 ft | 474 kts | 25° |
| 2026-04-30 14:51 | 40.31257 | -4.12780 | 34071 ft | 473 kts | 25° |
| 2026-04-30 14:52 | 40.40194 | -4.07273 | 34078 ft | 473 kts | 25° |
| 2026-04-30 14:52 | 40.49088 | -4.01790 | 34103 ft | 472 kts | 24° |
| 2026-04-30 14:53 | 40.58032 | -3.96264 | 34124 ft | 471 kts | 25° |
| 2026-04-30 14:54 | 40.69869 | -3.88883 | 34124 ft | 471 kts | 25° |
| 2026-04-30 14:55 | 40.78777 | -3.83350 | 34095 ft | 471 kts | 25° |
| 2026-04-30 14:56 | 40.90590 | -3.75950 | 34085 ft | 471 kts | 24° |
| 2026-04-30 14:57 | 40.99470 | -3.70372 | 34083 ft | 470 kts | 24° |
| 2026-04-30 14:58 | 41.11299 | -3.62948 | 34087 ft | 470 kts | 21° |
| 2026-04-30 14:58 | 41.20785 | -3.60614 | 34068 ft | 461 kts | 356° |
| 2026-04-30 15:00 | 41.36810 | -3.61022 | 34068 ft | 462 kts | 356° |
| 2026-04-30 15:01 | 41.49687 | -3.61348 | 34065 ft | 462 kts | 356° |
| 2026-04-30 15:01 | 41.59341 | -3.61432 | 34084 ft | 462 kts | 356° |
| 2026-04-30 15:02 | 41.65773 | -3.61382 | 34074 ft | 462 kts | 356° |
| 2026-04-30 15:03 | 41.81775 | -3.61367 | 34080 ft | 460 kts | 356° |
| 2026-04-30 15:04 | 41.88208 | -3.61374 | 33018 ft | 467 kts | 356° |
| 2026-04-30 15:04 | 41.97988 | -3.61370 | 30700 ft | 463 kts | 356° |
| 2026-04-30 15:05 | 42.07498 | -3.61539 | 28815 ft | 446 kts | 354° |
| 2026-04-30 15:06 | 42.13620 | -3.62000 | 27638 ft | 436 kts | 353° |
| 2026-04-30 15:06 | 42.19612 | -3.62481 | 26530 ft | 427 kts | 353° |
| 2026-04-30 15:07 | 42.25491 | -3.62885 | 25438 ft | 419 kts | 354° |
| 2026-04-30 15:07 | 42.31261 | -3.63249 | 24399 ft | 411 kts | 354° |
| 2026-04-30 15:08 | 42.36904 | -3.63747 | 23374 ft | 401 kts | 349° |
| 2026-04-30 15:08 | 42.44998 | -3.65360 | 21992 ft | 387 kts | 349° |
| 2026-04-30 15:09 | 42.50304 | -3.66411 | 21050 ft | 379 kts | 349° |
| 2026-04-30 15:09 | 42.55496 | -3.67438 | 20100 ft | 374 kts | 349° |
| 2026-04-30 15:10 | 42.60612 | -3.68464 | 19140 ft | 369 kts | 349° |
| 2026-04-30 15:11 | 42.70675 | -3.70578 | 17150 ft | 360 kts | 347° |
| 2026-04-30 15:11 | 42.75539 | -3.72011 | 16210 ft | 355 kts | 345° |
| 2026-04-30 15:12 | 42.82703 | -3.74229 | 14825 ft | 350 kts | 345° |
| 2026-04-30 15:13 | 42.87439 | -3.75639 | 13914 ft | 347 kts | 346° |
| 2026-04-30 15:14 | 42.96059 | -3.77149 | 12162 ft | 341 kts | 9° |
| 2026-04-30 15:14 | 43.02484 | -3.73130 | 10674 ft | 338 kts | 28° |
| 2026-04-30 15:16 | 43.12084 | -3.66005 | 9484 ft | 299 kts | 28° |
| 2026-04-30 15:17 | 43.19232 | -3.60666 | 7477 ft | 287 kts | 29° |
| 2026-04-30 15:18 | 43.26599 | -3.52424 | 5754 ft | 250 kts | 52° |
| 2026-04-30 15:19 | 43.30386 | -3.48048 | 4999 ft | 237 kts | 9° |